Betsy Ross — WDI9782 — position and weather

sailwx.info

Track history (hours):
 
Tides and Currents Weather Stations Pressure Air Temp Water Temp Dewpoint Dewpoint Depression Visibility Wind Speed Wind Dir Waves Ship Positions

Betsy Ross

Owner: Port Imperial Ferry Corporation, Weehawken, NJ. More information available from US FCC via Universal Licensing System and Coast Guard Vessel Documentation Center.

Last reported at 2017-Dec-15 23:43 UTC. Time now 2017-Dec-17 11:55 UTC.
Position N 40°33' W 074°04'.

Length 33 m; draft 2 m.

Type: Passenger vessel. MMSI: 367752090.

Date/timePositionNaut miles runAvg speedWind from/ knotsBaromVisibWave heightAir tempDewpointWater temp
2017-Dec-15 23:43N 40°33' W 074°04'628.6
2017-Dec-15 23:30N 40°39' W 074°02'4 8.7
2017-Dec-15 23:01N 40°43' W 074°02'11 9.9
2017-Dec-15 21:55N 40°32' W 074°04'1025.8
2017-Dec-15 21:30N 40°42' W 074°00'3 6.9
2017-Dec-15 21:00N 40°46' W 074°00'1 1.4
2017-Dec-15 20:30N 40°46' W 074°01'0 0.0
2017-Dec-15 20:00N 40°46' W 074°01'0 0.0
2017-Dec-15 19:30N 40°46' W 074°01'0 0.0
2017-Dec-15 19:00N 40°46' W 074°01'0 0.0
2017-Dec-15 18:30N 40°46' W 074°01'0 0.0
2017-Dec-15 18:00N 40°46' W 074°01'0 0.0
2017-Dec-15 17:30N 40°46' W 074°01'0 0.0
2017-Dec-15 16:58N 40°46' W 074°01'0 0.0
2017-Dec-15 16:30N 40°46' W 074°01'0 0.0
2017-Dec-15 16:00N 40°46' W 074°01'1 1.6
2017-Dec-15 15:30N 40°46' W 074°01'817.0
2017-Dec-15 15:00N 40°37' W 074°03'911.7
2017-Dec-15 14:15N 40°28' W 074°04'730.0
2017-Dec-15 14:01N 40°36' W 074°03'816.1
2017-Dec-15 13:31N 40°44' W 074°01'510.8
2017-Dec-15 13:00N 40°38' W 074°02'8 8.5
2017-Dec-15 12:07N 40°31' W 074°04'329.8
2017-Dec-15 12:00N 40°34' W 074°04'815.8
2017-Dec-15 11:31N 40°42' W 074°01'4 0.3
2017-Dec-14 18:30N 40°46' W 074°01'0 0.0
2017-Dec-14 18:00N 40°46' W 074°01'0 0.0
2017-Dec-14 17:30N 40°46' W 074°01'0 0.0
2017-Dec-14 17:00N 40°46' W 074°01'0 0.0
2017-Dec-14 16:30N 40°46' W 074°01'0 0.6
2017-Dec-14 16:00N 40°46' W 074°01'8 8.0
2017-Dec-14 15:01N 40°38' W 074°03'911.7
2017-Dec-14 14:16N 40°30' W 074°04'830.5
2017-Dec-14 14:01N 40°37' W 074°03'611.3
2017-Dec-14 13:31N 40°43' W 074°02'611.6
2017-Dec-14 13:00N 40°37' W 074°03'810.4
2017-Dec-14 12:12N 40°29' W 074°04'627.9
2017-Dec-14 12:00N 40°34' W 074°04'815.9
2017-Dec-14 11:31N 40°42' W 074°01'16 1.4
2017-Dec-13 23:58N 40°26' W 074°05'1226.1
2017-Dec-13 23:31N 40°38' W 074°03'5 9.7
2017-Dec-13 23:00N 40°43' W 074°02'1516.9
2017-Dec-13 22:05N 40°28' W 074°05'525.2
2017-Dec-13 21:53N 40°33' W 074°05'1026.6
2017-Dec-13 21:30N 40°42' W 074°00'3 6.7
2017-Dec-13 21:00N 40°46' W 074°00'1 1.5
2017-Dec-13 20:30N 40°46' W 074°01'0 0.0
2017-Dec-13 20:00N 40°46' W 074°01'0 0.1
2017-Dec-13 19:30N 40°46' W 074°01'0 0.0
2017-Dec-13 19:00N 40°46' W 074°01'0 0.0
2017-Dec-13 18:30N 40°46' W 074°01'0 0.0
2017-Dec-13 18:00N 40°46' W 074°01'0 0.1
2017-Dec-13 17:30N 40°46' W 074°01'0 0.0
2017-Dec-13 17:00N 40°46' W 074°01'0 0.0
2017-Dec-13 16:30N 40°46' W 074°01'0 0.0
2017-Dec-13 16:00N 40°46' W 074°01'2 3.3
2017-Dec-13 15:31N 40°45' W 074°01'714.9
2017-Dec-13 15:01N 40°37' W 074°03'1014.9
2017-Dec-13 14:20N 40°28' W 074°05'927.7
2017-Dec-13 14:01N 40°37' W 074°03'815.1
2017-Dec-13 13:30N 40°44' W 074°01'1713.6
2017-Dec-13 12:18N 40°28' W 074°05'827.6
2017-Dec-13 12:01N 40°36' W 074°03'713.9
2017-Dec-13 11:30N 40°42' W 074°00'12 1.0
2017-Dec-12 23:48N 40°30' W 074°04'829.2
2017-Dec-12 23:31N 40°39' W 074°02'4 8.5
2017-Dec-12 23:01N 40°43' W 074°02'1312.8
2017-Dec-12 21:59N 40°30' W 074°04'1326.5
2017-Dec-12 21:30N 40°42' W 074°00'3 6.6
2017-Dec-12 20:59N 40°46' W 074°00'1 1.5
2017-Dec-12 20:30N 40°46' W 074°01'0 0.0
2017-Dec-12 20:00N 40°46' W 074°01'0 0.0
2017-Dec-12 19:30N 40°46' W 074°01'0 0.0
2017-Dec-12 19:00N 40°46' W 074°01'0 0.0
2017-Dec-12 18:30N 40°46' W 074°01'0 0.0
2017-Dec-12 18:00N 40°46' W 074°01'0 0.0
2017-Dec-12 17:30N 40°46' W 074°01'0 0.0
2017-Dec-12 17:00N 40°46' W 074°01'0 0.0
2017-Dec-12 16:30N 40°46' W 074°01'0 0.0
2017-Dec-12 16:00N 40°46' W 074°01'1 1.4
2017-Dec-12 15:30N 40°46' W 074°00'815.4
2017-Dec-12 15:00N 40°38' W 074°03'1219.4
2017-Dec-12 14:23N 40°26' W 074°05'1128.4
2017-Dec-12 14:00N 40°37' W 074°03'612.7
2017-Dec-12 13:31N 40°43' W 074°02'510.1
2017-Dec-12 13:00N 40°38' W 074°03'912.0
2017-Dec-12 12:13N 40°29' W 074°04'628.8
2017-Dec-12 12:00N 40°35' W 074°04'714.7
2017-Dec-12 11:31N 40°42' W 074°01'11 0.9
2017-Dec-11 23:47N 40°31' W 074°03'829.7
2017-Dec-11 23:31N 40°39' W 074°03'4 7.3
2017-Dec-11 23:00N 40°43' W 074°02'1719.3
2017-Dec-11 22:08N 40°26' W 074°05'426.0
2017-Dec-11 21:58N 40°30' W 074°04'1226.5
2017-Dec-11 21:30N 40°42' W 074°00'3 6.8
2017-Dec-11 21:00N 40°46' W 074°00'1 1.5
2017-Dec-11 20:30N 40°46' W 074°01'0 0.0
2017-Dec-11 20:00N 40°46' W 074°01'0 0.0
2017-Dec-11 19:30N 40°46' W 074°01'0 0.0
2017-Dec-11 19:00N 40°46' W 074°01'0 0.0
2017-Dec-11 18:30N 40°46' W 074°01'0 0.0
2017-Dec-11 18:00N 40°46' W 074°01'0 0.0
2017-Dec-11 17:30N 40°46' W 074°01'0 0.0
2017-Dec-11 17:00N 40°46' W 074°01'0 0.0
2017-Dec-11 16:30N 40°46' W 074°01'0 0.0
2017-Dec-11 16:00N 40°46' W 074°01'1 2.0
2017-Dec-11 15:31N 40°45' W 074°01'714.0
2017-Dec-11 15:00N 40°38' W 074°02'1219.5
2017-Dec-11 14:22N 40°26' W 074°05'1027.8
2017-Dec-11 14:00N 40°36' W 074°03'918.1
2017-Dec-11 13:30N 40°45' W 074°01'713.9
2017-Dec-11 13:00N 40°38' W 074°03'9 9.9
2017-Dec-11 12:08N 40°29' W 074°04'429.4
2017-Dec-11 12:00N 40°33' W 074°03'918.3
2017-Dec-11 11:31N 40°42' W 074°01'  
2017-Dec-08 23:45N 40°30' W 074°03'729.3
2017-Dec-08 23:30N 40°37' W 074°03'611.4
2017-Dec-08 23:00N 40°43' W 074°01'1413.3
2017-Dec-08 21:58N 40°30' W 074°04'1327.8
2017-Dec-08 21:30N 40°42' W 074°00'3 6.7
2017-Dec-08 21:00N 40°46' W 074°00'1 1.5
2017-Dec-08 20:31N 40°46' W 074°01'0 0.0
2017-Dec-08 20:01N 40°46' W 074°01'0 0.0
2017-Dec-08 19:30N 40°46' W 074°01'0 0.0
2017-Dec-08 19:00N 40°46' W 074°01'0 0.0
2017-Dec-08 18:30N 40°46' W 074°01'0 0.0
2017-Dec-08 18:01N 40°46' W 074°01'0 0.0
2017-Dec-08 17:30N 40°46' W 074°01'0 0.0
2017-Dec-08 17:00N 40°46' W 074°01'0 0.0
2017-Dec-08 16:31N 40°46' W 074°01'0 0.0
2017-Dec-08 16:01N 40°46' W 074°01'2 4.4
2017-Dec-08 15:30N 40°44' W 074°01'611.6
2017-Dec-08 15:00N 40°38' W 074°03'810.0
2017-Dec-08 14:12N 40°30' W 074°03'628.7
2017-Dec-08 14:00N 40°36' W 074°03'816.3
2017-Dec-08 13:30N 40°44' W 074°01'510.8
2017-Dec-08 13:01N 40°39' W 074°03'1317.6
2017-Dec-08 12:17N 40°26' W 074°05'726.4
2017-Dec-08 12:01N 40°33' W 074°04'918.0
2017-Dec-08 11:31N 40°42' W 074°00'13 1.1
2017-Dec-07 23:49N 40°30' W 074°04'929.2
2017-Dec-07 23:31N 40°38' W 074°03'510.0
2017-Dec-07 23:01N 40°43' W 074°01'1414.4
2017-Dec-07 22:01N 40°29' W 074°04'228.8
2017-Dec-07 21:56N 40°31' W 074°03'1125.7
2017-Dec-07 21:30N 40°42' W 074°00'3 6.9
2017-Dec-07 21:00N 40°46' W 074°00'1 1.3
2017-Dec-07 20:30N 40°46' W 074°01'0 0.0
2017-Dec-07 20:00N 40°46' W 074°01'0 0.0
2017-Dec-07 19:30N 40°46' W 074°01'0 0.0
2017-Dec-07 19:00N 40°46' W 074°01'0 0.0
2017-Dec-07 18:30N 40°46' W 074°01'0 0.0
2017-Dec-07 18:00N 40°46' W 074°01'0 0.0
2017-Dec-07 17:30N 40°46' W 074°01'0 0.0
2017-Dec-07 17:00N 40°46' W 074°01'0 0.1
2017-Dec-07 16:30N 40°46' W 074°01'0 0.0
2017-Dec-07 16:00N 40°46' W 074°01'1 1.5
2017-Dec-07 15:30N 40°46' W 074°00'815.4
2017-Dec-07 15:01N 40°38' W 074°03'913.4
2017-Dec-07 14:18N 40°29' W 074°04'929.1
2017-Dec-07 14:00N 40°38' W 074°03'612.8
2017-Dec-07 13:31N 40°44' W 074°01'611.2
2017-Dec-07 13:00N 40°38' W 074°03'1216.4
2017-Dec-07 12:16N 40°26' W 074°05'828.8
2017-Dec-07 12:00N 40°34' W 074°02'817.4
2017-Dec-07 11:31N 40°42' W 074°01'11 1.0
2017-Dec-06 23:48N 40°31' W 074°04'828.3
2017-Dec-06 23:31N 40°39' W 074°02'4 8.4
2017-Dec-06 23:01N 40°43' W 074°01'1312.8
2017-Dec-06 21:58N 40°30' W 074°04'1328.0
2017-Dec-06 21:31N 40°42' W 074°00'3 6.7
2017-Dec-06 21:00N 40°46' W 074°00'  
Track history (hours):
 
Tides and Currents Weather Stations Pressure Air Temp Water Temp Dewpoint Dewpoint Depression Visibility Wind Speed Wind Dir Waves Ship Positions

Betsy Ross

Owner: Port Imperial Ferry Corporation, Weehawken, NJ. More information available from US FCC via Universal Licensing System and Coast Guard Vessel Documentation Center.

Last reported at 2017-Dec-15 23:43 UTC. Time now 2017-Dec-17 11:55 UTC.
Position N 40°33' W 074°04'.

Length 33 m; draft 2 m.

Type: Passenger vessel. MMSI: 367752090.

Date/timePositionNaut miles runAvg speedWind from/ knotsBaromVisibWave heightAir tempDewpointWater temp
2017-Dec-15 23:43N 40°33' W 074°04'628.6
2017-Dec-15 23:30N 40°39' W 074°02'4 8.7
2017-Dec-15 23:01N 40°43' W 074°02'11 9.9
2017-Dec-15 21:55N 40°32' W 074°04'1025.8
2017-Dec-15 21:30N 40°42' W 074°00'3 6.9
2017-Dec-15 21:00N 40°46' W 074°00'1 1.4
2017-Dec-15 20:30N 40°46' W 074°01'0 0.0
2017-Dec-15 20:00N 40°46' W 074°01'0 0.0
2017-Dec-15 19:30N 40°46' W 074°01'0 0.0
2017-Dec-15 19:00N 40°46' W 074°01'0 0.0
2017-Dec-15 18:30N 40°46' W 074°01'0 0.0
2017-Dec-15 18:00N 40°46' W 074°01'0 0.0
2017-Dec-15 17:30N 40°46' W 074°01'0 0.0
2017-Dec-15 16:58N 40°46' W 074°01'0 0.0
2017-Dec-15 16:30N 40°46' W 074°01'0 0.0
2017-Dec-15 16:00N 40°46' W 074°01'1 1.6
2017-Dec-15 15:30N 40°46' W 074°01'817.0
2017-Dec-15 15:00N 40°37' W 074°03'911.7
2017-Dec-15 14:15N 40°28' W 074°04'730.0
2017-Dec-15 14:01N 40°36' W 074°03'816.1
2017-Dec-15 13:31N 40°44' W 074°01'510.8
2017-Dec-15 13:00N 40°38' W 074°02'8 8.5
2017-Dec-15 12:07N 40°31' W 074°04'329.8
2017-Dec-15 12:00N 40°34' W 074°04'815.8
2017-Dec-15 11:31N 40°42' W 074°01'4 0.3
2017-Dec-14 18:30N 40°46' W 074°01'0 0.0
2017-Dec-14 18:00N 40°46' W 074°01'0 0.0
2017-Dec-14 17:30N 40°46' W 074°01'0 0.0
2017-Dec-14 17:00N 40°46' W 074°01'0 0.0
2017-Dec-14 16:30N 40°46' W 074°01'0 0.6
2017-Dec-14 16:00N 40°46' W 074°01'8 8.0
2017-Dec-14 15:01N 40°38' W 074°03'911.7
2017-Dec-14 14:16N 40°30' W 074°04'830.5
2017-Dec-14 14:01N 40°37' W 074°03'611.3
2017-Dec-14 13:31N 40°43' W 074°02'611.6
2017-Dec-14 13:00N 40°37' W 074°03'810.4
2017-Dec-14 12:12N 40°29' W 074°04'627.9
2017-Dec-14 12:00N 40°34' W 074°04'815.9
2017-Dec-14 11:31N 40°42' W 074°01'16 1.4
2017-Dec-13 23:58N 40°26' W 074°05'1226.1
2017-Dec-13 23:31N 40°38' W 074°03'5 9.7
2017-Dec-13 23:00N 40°43' W 074°02'1516.9
2017-Dec-13 22:05N 40°28' W 074°05'525.2
2017-Dec-13 21:53N 40°33' W 074°05'1026.6
2017-Dec-13 21:30N 40°42' W 074°00'3 6.7
2017-Dec-13 21:00N 40°46' W 074°00'1 1.5
2017-Dec-13 20:30N 40°46' W 074°01'0 0.0
2017-Dec-13 20:00N 40°46' W 074°01'0 0.1
2017-Dec-13 19:30N 40°46' W 074°01'0 0.0
2017-Dec-13 19:00N 40°46' W 074°01'0 0.0
2017-Dec-13 18:30N 40°46' W 074°01'0 0.0
2017-Dec-13 18:00N 40°46' W 074°01'0 0.1
2017-Dec-13 17:30N 40°46' W 074°01'0 0.0
2017-Dec-13 17:00N 40°46' W 074°01'0 0.0
2017-Dec-13 16:30N 40°46' W 074°01'0 0.0
2017-Dec-13 16:00N 40°46' W 074°01'2 3.3
2017-Dec-13 15:31N 40°45' W 074°01'714.9
2017-Dec-13 15:01N 40°37' W 074°03'1014.9
2017-Dec-13 14:20N 40°28' W 074°05'927.7
2017-Dec-13 14:01N 40°37' W 074°03'815.1
2017-Dec-13 13:30N 40°44' W 074°01'1713.6
2017-Dec-13 12:18N 40°28' W 074°05'827.6
2017-Dec-13 12:01N 40°36' W 074°03'713.9
2017-Dec-13 11:30N 40°42' W 074°00'12 1.0
2017-Dec-12 23:48N 40°30' W 074°04'829.2
2017-Dec-12 23:31N 40°39' W 074°02'4 8.5
2017-Dec-12 23:01N 40°43' W 074°02'1312.8
2017-Dec-12 21:59N 40°30' W 074°04'1326.5
2017-Dec-12 21:30N 40°42' W 074°00'3 6.6
2017-Dec-12 20:59N 40°46' W 074°00'1 1.5
2017-Dec-12 20:30N 40°46' W 074°01'0 0.0
2017-Dec-12 20:00N 40°46' W 074°01'0 0.0
2017-Dec-12 19:30N 40°46' W 074°01'0 0.0
2017-Dec-12 19:00N 40°46' W 074°01'0 0.0
2017-Dec-12 18:30N 40°46' W 074°01'0 0.0
2017-Dec-12 18:00N 40°46' W 074°01'0 0.0
2017-Dec-12 17:30N 40°46' W 074°01'0 0.0
2017-Dec-12 17:00N 40°46' W 074°01'0 0.0
2017-Dec-12 16:30N 40°46' W 074°01'0 0.0
2017-Dec-12 16:00N 40°46' W 074°01'1 1.4
2017-Dec-12 15:30N 40°46' W 074°00'815.4
2017-Dec-12 15:00N 40°38' W 074°03'1219.4
2017-Dec-12 14:23N 40°26' W 074°05'1128.4
2017-Dec-12 14:00N 40°37' W 074°03'612.7
2017-Dec-12 13:31N 40°43' W 074°02'510.1
2017-Dec-12 13:00N 40°38' W 074°03'912.0
2017-Dec-12 12:13N 40°29' W 074°04'628.8
2017-Dec-12 12:00N 40°35' W 074°04'714.7
2017-Dec-12 11:31N 40°42' W 074°01'11 0.9
2017-Dec-11 23:47N 40°31' W 074°03'829.7
2017-Dec-11 23:31N 40°39' W 074°03'4 7.3
2017-Dec-11 23:00N 40°43' W 074°02'1719.3
2017-Dec-11 22:08N 40°26' W 074°05'426.0
2017-Dec-11 21:58N 40°30' W 074°04'1226.5
2017-Dec-11 21:30N 40°42' W 074°00'3 6.8
2017-Dec-11 21:00N 40°46' W 074°00'1 1.5
2017-Dec-11 20:30N 40°46' W 074°01'0 0.0
2017-Dec-11 20:00N 40°46' W 074°01'0 0.0
2017-Dec-11 19:30N 40°46' W 074°01'0 0.0
2017-Dec-11 19:00N 40°46' W 074°01'0 0.0
2017-Dec-11 18:30N 40°46' W 074°01'0 0.0
2017-Dec-11 18:00N 40°46' W 074°01'0 0.0
2017-Dec-11 17:30N 40°46' W 074°01'0 0.0
2017-Dec-11 17:00N 40°46' W 074°01'0 0.0
2017-Dec-11 16:30N 40°46' W 074°01'0 0.0
2017-Dec-11 16:00N 40°46' W 074°01'1 2.0
2017-Dec-11 15:31N 40°45' W 074°01'714.0
2017-Dec-11 15:00N 40°38' W 074°02'1219.5
2017-Dec-11 14:22N 40°26' W 074°05'1027.8
2017-Dec-11 14:00N 40°36' W 074°03'918.1
2017-Dec-11 13:30N 40°45' W 074°01'713.9
2017-Dec-11 13:00N 40°38' W 074°03'9 9.9
2017-Dec-11 12:08N 40°29' W 074°04'429.4
2017-Dec-11 12:00N 40°33' W 074°03'918.3
2017-Dec-11 11:31N 40°42' W 074°01'  
2017-Dec-08 23:45N 40°30' W 074°03'729.3
2017-Dec-08 23:30N 40°37' W 074°03'611.4
2017-Dec-08 23:00N 40°43' W 074°01'1413.3
2017-Dec-08 21:58N 40°30' W 074°04'1327.8
2017-Dec-08 21:30N 40°42' W 074°00'3 6.7
2017-Dec-08 21:00N 40°46' W 074°00'1 1.5
2017-Dec-08 20:31N 40°46' W 074°01'0 0.0
2017-Dec-08 20:01N 40°46' W 074°01'0 0.0
2017-Dec-08 19:30N 40°46' W 074°01'0 0.0
2017-Dec-08 19:00N 40°46' W 074°01'0 0.0
2017-Dec-08 18:30N 40°46' W 074°01'0 0.0
2017-Dec-08 18:01N 40°46' W 074°01'0 0.0
2017-Dec-08 17:30N 40°46' W 074°01'0 0.0
2017-Dec-08 17:00N 40°46' W 074°01'0 0.0
2017-Dec-08 16:31N 40°46' W 074°01'0 0.0
2017-Dec-08 16:01N 40°46' W 074°01'2 4.4
2017-Dec-08 15:30N 40°44' W 074°01'611.6
2017-Dec-08 15:00N 40°38' W 074°03'810.0
2017-Dec-08 14:12N 40°30' W 074°03'628.7
2017-Dec-08 14:00N 40°36' W 074°03'816.3
2017-Dec-08 13:30N 40°44' W 074°01'510.8
2017-Dec-08 13:01N 40°39' W 074°03'1317.6
2017-Dec-08 12:17N 40°26' W 074°05'726.4
2017-Dec-08 12:01N 40°33' W 074°04'918.0
2017-Dec-08 11:31N 40°42' W 074°00'13 1.1
2017-Dec-07 23:49N 40°30' W 074°04'929.2
2017-Dec-07 23:31N 40°38' W 074°03'510.0
2017-Dec-07 23:01N 40°43' W 074°01'1414.4
2017-Dec-07 22:01N 40°29' W 074°04'228.8
2017-Dec-07 21:56N 40°31' W 074°03'1125.7
2017-Dec-07 21:30N 40°42' W 074°00'3 6.9
2017-Dec-07 21:00N 40°46' W 074°00'1 1.3
2017-Dec-07 20:30N 40°46' W 074°01'0 0.0
2017-Dec-07 20:00N 40°46' W 074°01'0 0.0
2017-Dec-07 19:30N 40°46' W 074°01'0 0.0
2017-Dec-07 19:00N 40°46' W 074°01'0 0.0
2017-Dec-07 18:30N 40°46' W 074°01'0 0.0
2017-Dec-07 18:00N 40°46' W 074°01'0 0.0
2017-Dec-07 17:30N 40°46' W 074°01'0 0.0
2017-Dec-07 17:00N 40°46' W 074°01'0 0.1
2017-Dec-07 16:30N 40°46' W 074°01'0 0.0
2017-Dec-07 16:00N 40°46' W 074°01'1 1.5
2017-Dec-07 15:30N 40°46' W 074°00'815.4
2017-Dec-07 15:01N 40°38' W 074°03'913.4
2017-Dec-07 14:18N 40°29' W 074°04'929.1
2017-Dec-07 14:00N 40°38' W 074°03'612.8
2017-Dec-07 13:31N 40°44' W 074°01'611.2
2017-Dec-07 13:00N 40°38' W 074°03'1216.4
2017-Dec-07 12:16N 40°26' W 074°05'828.8
2017-Dec-07 12:00N 40°34' W 074°02'817.4
2017-Dec-07 11:31N 40°42' W 074°01'11 1.0
2017-Dec-06 23:48N 40°31' W 074°04'828.3
2017-Dec-06 23:31N 40°39' W 074°02'4 8.4
2017-Dec-06 23:01N 40°43' W 074°01'1312.8
2017-Dec-06 21:58N 40°30' W 074°04'1328.0
2017-Dec-06 21:31N 40°42' W 074°00'3 6.7
2017-Dec-06 21:00N 40°46' W 074°00'  

Dump ship's entire track history